sensor_id;sensor_type;location;lat;lon;timestamp;P1;durP1;ratioP1;P2;durP2;ratioP2
15130;SDS011;7666;50.920;4.628;2022-11-15T00:02:24;26.60;;;19.13;;
15130;SDS011;7666;50.920;4.628;2022-11-15T00:05:10;21.30;;;19.00;;
15130;SDS011;7666;50.920;4.628;2022-11-15T00:07:56;24.97;;;20.23;;
15130;SDS011;7666;50.920;4.628;2022-11-15T00:10:42;24.13;;;20.13;;
15130;SDS011;7666;50.920;4.628;2022-11-15T00:13:29;25.57;;;20.37;;
15130;SDS011;7666;50.920;4.628;2022-11-15T00:16:15;25.83;;;20.17;;
15130;SDS011;7666;50.920;4.628;2022-11-15T00:19:01;23.80;;;20.03;;
15130;SDS011;7666;50.920;4.628;2022-11-15T00:21:47;23.87;;;20.57;;
15130;SDS011;7666;50.920;4.628;2022-11-15T00:24:33;25.67;;;20.53;;
15130;SDS011;7666;50.920;4.628;2022-11-15T00:27:19;22.97;;;19.77;;
15130;SDS011;7666;50.920;4.628;2022-11-15T00:30:05;23.93;;;20.47;;
15130;SDS011;7666;50.920;4.628;2022-11-15T00:32:51;25.33;;;20.63;;
15130;SDS011;7666;50.920;4.628;2022-11-15T00:35:37;23.90;;;20.50;;
15130;SDS011;7666;50.920;4.628;2022-11-15T00:38:23;23.87;;;20.17;;
15130;SDS011;7666;50.920;4.628;2022-11-15T00:41:09;23.47;;;19.87;;
15130;SDS011;7666;50.920;4.628;2022-11-15T00:43:55;22.57;;;20.03;;
15130;SDS011;7666;50.920;4.628;2022-11-15T00:46:41;23.33;;;20.00;;
15130;SDS011;7666;50.920;4.628;2022-11-15T00:49:27;25.20;;;20.63;;
15130;SDS011;7666;50.920;4.628;2022-11-15T00:52:13;23.07;;;19.83;;
15130;SDS011;7666;50.920;4.628;2022-11-15T00:54:59;27.53;;;21.27;;
15130;SDS011;7666;50.920;4.628;2022-11-15T00:57:45;24.37;;;20.27;;
15130;SDS011;7666;50.920;4.628;2022-11-15T01:00:31;28.40;;;21.20;;
15130;SDS011;7666;50.920;4.628;2022-11-15T01:03:17;23.03;;;19.97;;
15130;SDS011;7666;50.920;4.628;2022-11-15T01:06:03;25.63;;;21.37;;
15130;SDS011;7666;50.920;4.628;2022-11-15T01:08:50;25.10;;;20.53;;
15130;SDS011;7666;50.920;4.628;2022-11-15T01:11:36;27.03;;;20.63;;
15130;SDS011;7666;50.920;4.628;2022-11-15T01:14:22;29.87;;;23.87;;
15130;SDS011;7666;50.920;4.628;2022-11-15T01:17:08;29.13;;;22.90;;
15130;SDS011;7666;50.920;4.628;2022-11-15T01:19:54;26.77;;;21.50;;
15130;SDS011;7666;50.920;4.628;2022-11-15T01:22:40;25.53;;;21.87;;
15130;SDS011;7666;50.920;4.628;2022-11-15T01:25:25;27.70;;;22.43;;
15130;SDS011;7666;50.920;4.628;2022-11-15T01:28:11;25.53;;;21.90;;
15130;SDS011;7666;50.920;4.628;2022-11-15T01:30:58;30.40;;;22.27;;
15130;SDS011;7666;50.920;4.628;2022-11-15T01:33:45;26.10;;;21.23;;
15130;SDS011;7666;50.920;4.628;2022-11-15T01:36:32;26.57;;;22.53;;
15130;SDS011;7666;50.920;4.628;2022-11-15T01:39:18;29.70;;;21.77;;
15130;SDS011;7666;50.920;4.628;2022-11-15T01:42:04;27.50;;;22.60;;
15130;SDS011;7666;50.920;4.628;2022-11-15T01:44:50;29.23;;;23.30;;
15130;SDS011;7666;50.920;4.628;2022-11-15T01:47:39;32.30;;;24.27;;
15130;SDS011;7666;50.920;4.628;2022-11-15T01:50:30;32.37;;;25.43;;
15130;SDS011;7666;50.920;4.628;2022-11-15T01:53:18;38.10;;;25.87;;
15130;SDS011;7666;50.920;4.628;2022-11-15T01:56:07;34.20;;;25.63;;
15130;SDS011;7666;50.920;4.628;2022-11-15T01:58:57;35.63;;;26.00;;
15130;SDS011;7666;50.920;4.628;2022-11-15T02:01:47;34.50;;;25.83;;
15130;SDS011;7666;50.920;4.628;2022-11-15T02:04:38;33.23;;;25.10;;
15130;SDS011;7666;50.920;4.628;2022-11-15T02:07:30;34.43;;;25.67;;
15130;SDS011;7666;50.920;4.628;2022-11-15T02:10:18;31.70;;;25.93;;
15130;SDS011;7666;50.920;4.628;2022-11-15T02:13:05;33.00;;;26.33;;
15130;SDS011;7666;50.920;4.628;2022-11-15T02:15:55;31.67;;;25.53;;
15130;SDS011;7666;50.920;4.628;2022-11-15T02:34:16;29.43;;;23.10;;
15130;SDS011;7666;50.920;4.628;2022-11-15T02:37:22;27.00;;;22.27;;
15130;SDS011;7666;50.920;4.628;2022-11-15T02:43:11;24.73;;;19.73;;
15130;SDS011;7666;50.920;4.628;2022-11-15T02:46:21;23.40;;;20.40;;
15130;SDS011;7666;50.920;4.628;2022-11-15T02:49:31;21.40;;;19.07;;
15130;SDS011;7666;50.920;4.628;2022-11-15T02:52:20;25.47;;;20.27;;
15130;SDS011;7666;50.920;4.628;2022-11-15T03:01:21;24.17;;;19.33;;
15130;SDS011;7666;50.920;4.628;2022-11-15T03:05:04;23.20;;;19.67;;
15130;SDS011;7666;50.920;4.628;2022-11-15T03:07:37;24.50;;;19.97;;
15130;SDS011;7666;50.920;4.628;2022-11-15T03:10:40;25.13;;;20.77;;
15130;SDS011;7666;50.920;4.628;2022-11-15T03:19:57;25.83;;;21.13;;
15130;SDS011;7666;50.920;4.628;2022-11-15T03:22:46;23.13;;;20.40;;
15130;SDS011;7666;50.920;4.628;2022-11-15T03:25:34;29.57;;;22.17;;
15130;SDS011;7666;50.920;4.628;2022-11-15T03:28:28;26.10;;;20.93;;
15130;SDS011;7666;50.920;4.628;2022-11-15T03:31:19;25.33;;;21.10;;
15130;SDS011;7666;50.920;4.628;2022-11-15T03:37:45;23.63;;;20.43;;
15130;SDS011;7666;50.920;4.628;2022-11-15T03:41:04;27.50;;;21.97;;
15130;SDS011;7666;50.920;4.628;2022-11-15T03:43:57;25.50;;;21.03;;
15130;SDS011;7666;50.920;4.628;2022-11-15T03:46:57;25.97;;;21.53;;
15130;SDS011;7666;50.920;4.628;2022-11-15T03:49:53;28.10;;;20.73;;
15130;SDS011;7666;50.920;4.628;2022-11-15T03:52:47;23.83;;;20.80;;
15130;SDS011;7666;50.920;4.628;2022-11-15T03:55:34;23.67;;;20.13;;
15130;SDS011;7666;50.920;4.628;2022-11-15T03:58:20;25.27;;;20.40;;
15130;SDS011;7666;50.920;4.628;2022-11-15T04:01:06;24.97;;;20.50;;
15130;SDS011;7666;50.920;4.628;2022-11-15T04:03:52;24.23;;;18.40;;
15130;SDS011;7666;50.920;4.628;2022-11-15T04:06:38;22.27;;;18.03;;
15130;SDS011;7666;50.920;4.628;2022-11-15T04:09:24;21.43;;;18.10;;
15130;SDS011;7666;50.920;4.628;2022-11-15T04:12:10;17.10;;;15.30;;
15130;SDS011;7666;50.920;4.628;2022-11-15T04:15:15;20.70;;;16.00;;
15130;SDS011;7666;50.920;4.628;2022-11-15T04:18:05;19.00;;;14.50;;
15130;SDS011;7666;50.920;4.628;2022-11-15T04:20:51;18.57;;;15.63;;
15130;SDS011;7666;50.920;4.628;2022-11-15T04:23:56;16.27;;;12.33;;
15130;SDS011;7666;50.920;4.628;2022-11-15T04:27:00;15.50;;;12.77;;
15130;SDS011;7666;50.920;4.628;2022-11-15T04:29:46;14.07;;;10.90;;
15130;SDS011;7666;50.920;4.628;2022-11-15T04:32:32;13.63;;;9.67;;
15130;SDS011;7666;50.920;4.628;2022-11-15T04:35:18;12.60;;;9.63;;
15130;SDS011;7666;50.920;4.628;2022-11-15T04:38:05;13.40;;;8.97;;
15130;SDS011;7666;50.920;4.628;2022-11-15T04:40:52;13.07;;;8.77;;
15130;SDS011;7666;50.920;4.628;2022-11-15T04:43:38;13.13;;;9.60;;
15130;SDS011;7666;50.920;4.628;2022-11-15T04:46:24;13.37;;;10.13;;
15130;SDS011;7666;50.920;4.628;2022-11-15T04:49:10;12.23;;;9.70;;
15130;SDS011;7666;50.920;4.628;2022-11-15T04:51:56;13.37;;;9.80;;
15130;SDS011;7666;50.920;4.628;2022-11-15T04:54:42;12.90;;;10.20;;
15130;SDS011;7666;50.920;4.628;2022-11-15T04:57:28;15.10;;;10.30;;
15130;SDS011;7666;50.920;4.628;2022-11-15T05:00:15;11.90;;;10.70;;
15130;SDS011;7666;50.920;4.628;2022-11-15T05:03:02;11.87;;;9.83;;
15130;SDS011;7666;50.920;4.628;2022-11-15T05:06:06;12.67;;;10.10;;
15130;SDS011;7666;50.920;4.628;2022-11-15T05:08:52;11.40;;;8.83;;
15130;SDS011;7666;50.920;4.628;2022-11-15T05:11:39;13.03;;;9.47;;
15130;SDS011;7666;50.920;4.628;2022-11-15T05:14:25;11.00;;;8.17;;
15130;SDS011;7666;50.920;4.628;2022-11-15T05:17:11;9.30;;;7.90;;
15130;SDS011;7666;50.920;4.628;2022-11-15T05:19:57;12.80;;;8.70;;
15130;SDS011;7666;50.920;4.628;2022-11-15T05:22:43;10.87;;;7.73;;
15130;SDS011;7666;50.920;4.628;2022-11-15T05:25:29;12.13;;;7.57;;
15130;SDS011;7666;50.920;4.628;2022-11-15T05:28:15;12.97;;;7.70;;
15130;SDS011;7666;50.920;4.628;2022-11-15T05:31:01;13.23;;;7.50;;
15130;SDS011;7666;50.920;4.628;2022-11-15T05:33:49;9.17;;;6.70;;
15130;SDS011;7666;50.920;4.628;2022-11-15T05:36:43;9.67;;;7.27;;
15130;SDS011;7666;50.920;4.628;2022-11-15T05:39:31;10.03;;;6.80;;
15130;SDS011;7666;50.920;4.628;2022-11-15T05:42:16;9.77;;;7.07;;
15130;SDS011;7666;50.920;4.628;2022-11-15T05:45:03;9.67;;;7.47;;
15130;SDS011;7666;50.920;4.628;2022-11-15T05:47:51;9.77;;;6.50;;
15130;SDS011;7666;50.920;4.628;2022-11-15T05:50:39;10.83;;;6.63;;
15130;SDS011;7666;50.920;4.628;2022-11-15T05:53:29;9.03;;;6.57;;
15130;SDS011;7666;50.920;4.628;2022-11-15T05:56:15;10.97;;;6.33;;
15130;SDS011;7666;50.920;4.628;2022-11-15T05:59:01;10.57;;;6.80;;
15130;SDS011;7666;50.920;4.628;2022-11-15T06:01:48;9.30;;;7.00;;
15130;SDS011;7666;50.920;4.628;2022-11-15T06:04:34;13.70;;;7.37;;
15130;SDS011;7666;50.920;4.628;2022-11-15T06:07:20;10.33;;;7.00;;
15130;SDS011;7666;50.920;4.628;2022-11-15T06:10:07;10.37;;;7.30;;
15130;SDS011;7666;50.920;4.628;2022-11-15T06:13:00;11.80;;;7.30;;
15130;SDS011;7666;50.920;4.628;2022-11-15T06:15:48;9.97;;;7.60;;
15130;SDS011;7666;50.920;4.628;2022-11-15T06:18:34;10.60;;;8.07;;
15130;SDS011;7666;50.920;4.628;2022-11-15T06:21:20;12.00;;;8.30;;
15130;SDS011;7666;50.920;4.628;2022-11-15T06:24:07;12.23;;;8.27;;
15130;SDS011;7666;50.920;4.628;2022-11-15T06:26:53;11.40;;;8.37;;
15130;SDS011;7666;50.920;4.628;2022-11-15T06:29:39;9.87;;;7.70;;
15130;SDS011;7666;50.920;4.628;2022-11-15T06:32:25;11.93;;;8.30;;
15130;SDS011;7666;50.920;4.628;2022-11-15T06:35:11;11.03;;;8.03;;
15130;SDS011;7666;50.920;4.628;2022-11-15T06:38:08;13.27;;;7.57;;
15130;SDS011;7666;50.920;4.628;2022-11-15T06:40:55;11.27;;;7.63;;
15130;SDS011;7666;50.920;4.628;2022-11-15T06:43:46;9.73;;;7.43;;
15130;SDS011;7666;50.920;4.628;2022-11-15T06:46:32;9.17;;;6.67;;
15130;SDS011;7666;50.920;4.628;2022-11-15T06:49:18;10.37;;;7.43;;
15130;SDS011;7666;50.920;4.628;2022-11-15T06:52:04;10.47;;;7.40;;
15130;SDS011;7666;50.920;4.628;2022-11-15T06:54:50;8.93;;;7.73;;
15130;SDS011;7666;50.920;4.628;2022-11-15T06:57:36;10.90;;;7.27;;
15130;SDS011;7666;50.920;4.628;2022-11-15T07:00:22;11.57;;;7.40;;
15130;SDS011;7666;50.920;4.628;2022-11-15T07:03:08;10.50;;;7.03;;
15130;SDS011;7666;50.920;4.628;2022-11-15T07:05:55;10.40;;;7.60;;
15130;SDS011;7666;50.920;4.628;2022-11-15T07:08:42;14.57;;;8.00;;
15130;SDS011;7666;50.920;4.628;2022-11-15T07:11:28;10.03;;;7.53;;
15130;SDS011;7666;50.920;4.628;2022-11-15T07:14:14;10.27;;;8.40;;
15130;SDS011;7666;50.920;4.628;2022-11-15T07:17:02;11.53;;;9.27;;
15130;SDS011;7666;50.920;4.628;2022-11-15T07:19:50;10.80;;;8.30;;
15130;SDS011;7666;50.920;4.628;2022-11-15T07:22:35;11.37;;;8.33;;
15130;SDS011;7666;50.920;4.628;2022-11-15T07:25:21;8.80;;;7.60;;
15130;SDS011;7666;50.920;4.628;2022-11-15T07:28:07;14.10;;;8.00;;
15130;SDS011;7666;50.920;4.628;2022-11-15T07:30:53;10.53;;;7.47;;
15130;SDS011;7666;50.920;4.628;2022-11-15T07:33:40;9.07;;;7.17;;
15130;SDS011;7666;50.920;4.628;2022-11-15T07:36:26;10.97;;;6.70;;
15130;SDS011;7666;50.920;4.628;2022-11-15T07:39:11;11.37;;;7.10;;
15130;SDS011;7666;50.920;4.628;2022-11-15T07:41:59;9.20;;;6.43;;
15130;SDS011;7666;50.920;4.628;2022-11-15T07:45:04;7.80;;;6.50;;
15130;SDS011;7666;50.920;4.628;2022-11-15T07:47:51;9.17;;;5.40;;
15130;SDS011;7666;50.920;4.628;2022-11-15T07:50:40;7.50;;;5.37;;
15130;SDS011;7666;50.920;4.628;2022-11-15T07:53:27;8.07;;;5.20;;
15130;SDS011;7666;50.920;4.628;2022-11-15T07:56:13;8.70;;;5.10;;
15130;SDS011;7666;50.920;4.628;2022-11-15T07:58:59;7.13;;;5.17;;
15130;SDS011;7666;50.920;4.628;2022-11-15T08:01:46;9.03;;;5.17;;
15130;SDS011;7666;50.920;4.628;2022-11-15T08:04:32;7.67;;;5.20;;
15130;SDS011;7666;50.920;4.628;2022-11-15T08:07:18;10.03;;;4.67;;
15130;SDS011;7666;50.920;4.628;2022-11-15T08:10:04;8.67;;;4.20;;
15130;SDS011;7666;50.920;4.628;2022-11-15T08:12:59;5.63;;;3.80;;
15130;SDS011;7666;50.920;4.628;2022-11-15T08:15:46;5.77;;;3.37;;
15130;SDS011;7666;50.920;4.628;2022-11-15T08:18:32;6.60;;;3.37;;
15130;SDS011;7666;50.920;4.628;2022-11-15T08:21:19;6.20;;;2.80;;
15130;SDS011;7666;50.920;4.628;2022-11-15T08:24:07;7.27;;;3.27;;
15130;SDS011;7666;50.920;4.628;2022-11-15T08:26:55;6.03;;;2.83;;
15130;SDS011;7666;50.920;4.628;2022-11-15T08:29:42;4.10;;;2.30;;
15130;SDS011;7666;50.920;4.628;2022-11-15T08:32:28;8.17;;;3.00;;
15130;SDS011;7666;50.920;4.628;2022-11-15T08:35:16;3.20;;;2.00;;
15130;SDS011;7666;50.920;4.628;2022-11-15T08:38:02;6.43;;;2.70;;
15130;SDS011;7666;50.920;4.628;2022-11-15T08:40:48;7.03;;;2.20;;
15130;SDS011;7666;50.920;4.628;2022-11-15T08:43:36;4.60;;;2.03;;
15130;SDS011;7666;50.920;4.628;2022-11-15T08:46:22;4.27;;;2.03;;
15130;SDS011;7666;50.920;4.628;2022-11-15T08:49:08;5.97;;;2.07;;
15130;SDS011;7666;50.920;4.628;2022-11-15T08:51:54;5.60;;;2.03;;
15130;SDS011;7666;50.920;4.628;2022-11-15T08:54:40;5.47;;;1.93;;
15130;SDS011;7666;50.920;4.628;2022-11-15T08:57:28;5.70;;;1.57;;
15130;SDS011;7666;50.920;4.628;2022-11-15T09:00:15;3.80;;;1.80;;
15130;SDS011;7666;50.920;4.628;2022-11-15T09:03:05;3.67;;;1.40;;
15130;SDS011;7666;50.920;4.628;2022-11-15T09:05:55;4.10;;;1.57;;
15130;SDS011;7666;50.920;4.628;2022-11-15T09:08:42;3.27;;;1.17;;
15130;SDS011;7666;50.920;4.628;2022-11-15T09:11:28;4.03;;;1.50;;
15130;SDS011;7666;50.920;4.628;2022-11-15T09:14:14;4.20;;;1.60;;
15130;SDS011;7666;50.920;4.628;2022-11-15T09:17:01;4.67;;;1.50;;
15130;SDS011;7666;50.920;4.628;2022-11-15T09:19:47;3.20;;;1.40;;
15130;SDS011;7666;50.920;4.628;2022-11-15T09:22:33;3.80;;;1.60;;
15130;SDS011;7666;50.920;4.628;2022-11-15T09:25:19;5.93;;;1.53;;
15130;SDS011;7666;50.920;4.628;2022-11-15T09:28:06;3.47;;;1.40;;
15130;SDS011;7666;50.920;4.628;2022-11-15T09:30:55;5.40;;;1.50;;
15130;SDS011;7666;50.920;4.628;2022-11-15T09:33:45;2.63;;;1.17;;
15130;SDS011;7666;50.920;4.628;2022-11-15T09:36:31;5.00;;;1.50;;
15130;SDS011;7666;50.920;4.628;2022-11-15T09:39:17;4.93;;;1.20;;
15130;SDS011;7666;50.920;4.628;2022-11-15T09:51:01;5.47;;;1.10;;
15130;SDS011;7666;50.920;4.628;2022-11-15T09:57:14;3.27;;;1.13;;
15130;SDS011;7666;50.920;4.628;2022-11-15T10:06:09;5.77;;;1.30;;
15130;SDS011;7666;50.920;4.628;2022-11-15T10:12:02;6.53;;;1.13;;
15130;SDS011;7666;50.920;4.628;2022-11-15T10:14:48;8.40;;;1.60;;
15130;SDS011;7666;50.920;4.628;2022-11-15T10:20:30;2.73;;;0.93;;
15130;SDS011;7666;50.920;4.628;2022-11-15T10:23:23;4.80;;;1.20;;
15130;SDS011;7666;50.920;4.628;2022-11-15T10:26:11;4.90;;;1.23;;
15130;SDS011;7666;50.920;4.628;2022-11-15T10:29:00;4.47;;;1.33;;
15130;SDS011;7666;50.920;4.628;2022-11-15T10:31:46;7.00;;;1.57;;
15130;SDS011;7666;50.920;4.628;2022-11-15T10:34:35;6.50;;;1.37;;
15130;SDS011;7666;50.920;4.628;2022-11-15T10:37:28;5.13;;;1.20;;
15130;SDS011;7666;50.920;4.628;2022-11-15T10:45:54;11.30;;;1.87;;
15130;SDS011;7666;50.920;4.628;2022-11-15T10:48:40;6.57;;;1.13;;
15130;SDS011;7666;50.920;4.628;2022-11-15T10:51:27;5.77;;;1.20;;
15130;SDS011;7666;50.920;4.628;2022-11-15T10:54:24;6.07;;;1.23;;
15130;SDS011;7666;50.920;4.628;2022-11-15T10:57:17;4.63;;;1.23;;
15130;SDS011;7666;50.920;4.628;2022-11-15T11:00:06;4.33;;;1.03;;
15130;SDS011;7666;50.920;4.628;2022-11-15T11:06:14;4.33;;;1.13;;
15130;SDS011;7666;50.920;4.628;2022-11-15T11:09:03;4.77;;;1.30;;
15130;SDS011;7666;50.920;4.628;2022-11-15T11:11:51;5.63;;;1.27;;
15130;SDS011;7666;50.920;4.628;2022-11-15T11:14:38;3.83;;;1.20;;
15130;SDS011;7666;50.920;4.628;2022-11-15T11:20:38;3.93;;;1.10;;
15130;SDS011;7666;50.920;4.628;2022-11-15T11:47:31;4.27;;;1.30;;
15130;SDS011;7666;50.920;4.628;2022-11-15T11:50:23;5.43;;;1.20;;
15130;SDS011;7666;50.920;4.628;2022-11-15T11:53:15;4.30;;;1.30;;
15130;SDS011;7666;50.920;4.628;2022-11-15T11:56:15;4.80;;;1.20;;
15130;SDS011;7666;50.920;4.628;2022-11-15T11:59:28;4.40;;;1.47;;
15130;SDS011;7666;50.920;4.628;2022-11-15T12:02:19;4.23;;;1.00;;
15130;SDS011;7666;50.920;4.628;2022-11-15T12:05:22;4.30;;;1.40;;
15130;SDS011;7666;50.920;4.628;2022-11-15T12:11:27;5.47;;;1.27;;
15130;SDS011;7666;50.920;4.628;2022-11-15T12:14:30;4.77;;;1.07;;
15130;SDS011;7666;50.920;4.628;2022-11-15T12:17:40;4.90;;;1.03;;
15130;SDS011;7666;50.920;4.628;2022-11-15T12:20:29;6.23;;;1.17;;
15130;SDS011;7666;50.920;4.628;2022-11-15T12:23:20;4.17;;;1.57;;
15130;SDS011;7666;50.920;4.628;2022-11-15T12:26:18;4.67;;;1.33;;
15130;SDS011;7666;50.920;4.628;2022-11-15T12:29:12;4.80;;;1.27;;
15130;SDS011;7666;50.920;4.628;2022-11-15T12:32:03;4.47;;;1.30;;
15130;SDS011;7666;50.920;4.628;2022-11-15T12:34:56;4.23;;;1.20;;
15130;SDS011;7666;50.920;4.628;2022-11-15T12:40:35;6.30;;;1.20;;
15130;SDS011;7666;50.920;4.628;2022-11-15T12:43:35;3.47;;;1.13;;
15130;SDS011;7666;50.920;4.628;2022-11-15T12:52:09;5.30;;;1.30;;
15130;SDS011;7666;50.920;4.628;2022-11-15T12:54:56;4.20;;;1.20;;
15130;SDS011;7666;50.920;4.628;2022-11-15T12:57:43;4.33;;;1.03;;
15130;SDS011;7666;50.920;4.628;2022-11-15T13:03:23;4.07;;;1.10;;
15130;SDS011;7666;50.920;4.628;2022-11-15T13:17:58;1.80;;;1.00;;
15130;SDS011;7666;50.920;4.628;2022-11-15T13:21:05;7.23;;;1.20;;
15130;SDS011;7666;50.920;4.628;2022-11-15T13:24:23;2.33;;;0.80;;
15130;SDS011;7666;50.920;4.628;2022-11-15T13:27:19;3.80;;;1.13;;
15130;SDS011;7666;50.920;4.628;2022-11-15T13:30:11;4.50;;;0.90;;
15130;SDS011;7666;50.920;4.628;2022-11-15T13:33:15;3.37;;;0.83;;
15130;SDS011;7666;50.920;4.628;2022-11-15T13:36:15;3.43;;;1.10;;
15130;SDS011;7666;50.920;4.628;2022-11-15T13:39:26;2.20;;;0.90;;
15130;SDS011;7666;50.920;4.628;2022-11-15T13:42:20;3.23;;;0.97;;
15130;SDS011;7666;50.920;4.628;2022-11-15T13:45:11;2.30;;;1.20;;
15130;SDS011;7666;50.920;4.628;2022-11-15T13:47:59;3.20;;;0.90;;
15130;SDS011;7666;50.920;4.628;2022-11-15T13:50:48;3.43;;;0.90;;
15130;SDS011;7666;50.920;4.628;2022-11-15T13:53:34;2.40;;;1.10;;
15130;SDS011;7666;50.920;4.628;2022-11-15T13:56:25;3.37;;;1.10;;
15130;SDS011;7666;50.920;4.628;2022-11-15T13:59:21;3.07;;;0.87;;
15130;SDS011;7666;50.920;4.628;2022-11-15T14:02:20;2.10;;;1.00;;
15130;SDS011;7666;50.920;4.628;2022-11-15T14:05:22;5.07;;;1.37;;
15130;SDS011;7666;50.920;4.628;2022-11-15T14:11:09;1.63;;;0.90;;
15130;SDS011;7666;50.920;4.628;2022-11-15T14:14:04;2.20;;;1.10;;
15130;SDS011;7666;50.920;4.628;2022-11-15T14:16:57;3.00;;;0.83;;
15130;SDS011;7666;50.920;4.628;2022-11-15T14:19:45;1.07;;;0.70;;
15130;SDS011;7666;50.920;4.628;2022-11-15T14:22:30;3.10;;;1.10;;
15130;SDS011;7666;50.920;4.628;2022-11-15T14:25:18;1.90;;;0.93;;
15130;SDS011;7666;50.920;4.628;2022-11-15T14:30:56;1.97;;;1.20;;
15130;SDS011;7666;50.920;4.628;2022-11-15T14:33:44;0.90;;;0.80;;
15130;SDS011;7666;50.920;4.628;2022-11-15T14:36:30;4.43;;;1.20;;
15130;SDS011;7666;50.920;4.628;2022-11-15T14:39:16;2.47;;;1.10;;
15130;SDS011;7666;50.920;4.628;2022-11-15T14:42:02;1.50;;;1.10;;
15130;SDS011;7666;50.920;4.628;2022-11-15T14:44:48;4.30;;;1.40;;
15130;SDS011;7666;50.920;4.628;2022-11-15T14:47:35;2.40;;;1.13;;
15130;SDS011;7666;50.920;4.628;2022-11-15T14:50:21;3.00;;;1.20;;
15130;SDS011;7666;50.920;4.628;2022-11-15T14:53:10;2.27;;;1.13;;
15130;SDS011;7666;50.920;4.628;2022-11-15T14:55:58;1.97;;;1.10;;
15130;SDS011;7666;50.920;4.628;2022-11-15T14:58:44;2.03;;;1.20;;
15130;SDS011;7666;50.920;4.628;2022-11-15T15:01:30;2.47;;;1.30;;
15130;SDS011;7666;50.920;4.628;2022-11-15T15:04:17;1.50;;;1.00;;
15130;SDS011;7666;50.920;4.628;2022-11-15T15:07:03;3.63;;;1.23;;
15130;SDS011;7666;50.920;4.628;2022-11-15T15:09:49;1.77;;;1.20;;
15130;SDS011;7666;50.920;4.628;2022-11-15T15:12:35;1.37;;;0.90;;
15130;SDS011;7666;50.920;4.628;2022-11-15T15:15:24;1.63;;;1.20;;
15130;SDS011;7666;50.920;4.628;2022-11-15T15:18:11;2.50;;;1.47;;
15130;SDS011;7666;50.920;4.628;2022-11-15T15:20:58;2.00;;;1.00;;
15130;SDS011;7666;50.920;4.628;2022-11-15T15:23:48;1.27;;;1.17;;
15130;SDS011;7666;50.920;4.628;2022-11-15T15:26:34;2.33;;;1.30;;
15130;SDS011;7666;50.920;4.628;2022-11-15T15:29:21;2.17;;;1.20;;
15130;SDS011;7666;50.920;4.628;2022-11-15T15:32:08;1.40;;;1.20;;
15130;SDS011;7666;50.920;4.628;2022-11-15T15:34:55;1.50;;;1.20;;
15130;SDS011;7666;50.920;4.628;2022-11-15T15:37:41;1.63;;;1.23;;
15130;SDS011;7666;50.920;4.628;2022-11-15T15:40:29;1.87;;;1.20;;
15130;SDS011;7666;50.920;4.628;2022-11-15T15:43:17;2.50;;;1.50;;
15130;SDS011;7666;50.920;4.628;2022-11-15T15:46:03;2.00;;;1.23;;
15130;SDS011;7666;50.920;4.628;2022-11-15T15:48:49;2.30;;;1.50;;
15130;SDS011;7666;50.920;4.628;2022-11-15T15:51:36;3.37;;;1.30;;
15130;SDS011;7666;50.920;4.628;2022-11-15T15:54:21;2.50;;;1.20;;
15130;SDS011;7666;50.920;4.628;2022-11-15T15:57:08;2.03;;;1.30;;
15130;SDS011;7666;50.920;4.628;2022-11-15T15:59:57;4.33;;;1.60;;
15130;SDS011;7666;50.920;4.628;2022-11-15T16:02:43;3.53;;;1.73;;
15130;SDS011;7666;50.920;4.628;2022-11-15T16:05:29;1.83;;;1.50;;
15130;SDS011;7666;50.920;4.628;2022-11-15T16:08:19;3.23;;;1.60;;
15130;SDS011;7666;50.920;4.628;2022-11-15T16:11:06;2.23;;;1.40;;
15130;SDS011;7666;50.920;4.628;2022-11-15T16:13:54;2.80;;;1.43;;
15130;SDS011;7666;50.920;4.628;2022-11-15T16:16:40;1.87;;;1.40;;
15130;SDS011;7666;50.920;4.628;2022-11-15T16:19:26;2.70;;;1.60;;
15130;SDS011;7666;50.920;4.628;2022-11-15T16:22:12;3.40;;;1.40;;
15130;SDS011;7666;50.920;4.628;2022-11-15T16:24:58;2.87;;;1.70;;
15130;SDS011;7666;50.920;4.628;2022-11-15T16:27:44;3.20;;;1.80;;
15130;SDS011;7666;50.920;4.628;2022-11-15T16:30:31;3.13;;;1.83;;
15130;SDS011;7666;50.920;4.628;2022-11-15T16:33:18;5.07;;;1.80;;
15130;SDS011;7666;50.920;4.628;2022-11-15T16:36:18;1.90;;;1.63;;
15130;SDS011;7666;50.920;4.628;2022-11-15T16:39:04;2.37;;;1.67;;
15130;SDS011;7666;50.920;4.628;2022-11-15T16:41:50;1.90;;;1.50;;
15130;SDS011;7666;50.920;4.628;2022-11-15T16:44:36;2.30;;;1.73;;
15130;SDS011;7666;50.920;4.628;2022-11-15T16:47:22;2.73;;;1.63;;
15130;SDS011;7666;50.920;4.628;2022-11-15T16:50:17;2.47;;;1.60;;
15130;SDS011;7666;50.920;4.628;2022-11-15T16:53:14;3.83;;;1.83;;
15130;SDS011;7666;50.920;4.628;2022-11-15T16:56:00;3.57;;;2.07;;
15130;SDS011;7666;50.920;4.628;2022-11-15T16:58:46;2.10;;;1.90;;
15130;SDS011;7666;50.920;4.628;2022-11-15T17:01:33;2.77;;;1.93;;
15130;SDS011;7666;50.920;4.628;2022-11-15T17:04:21;3.83;;;1.97;;
15130;SDS011;7666;50.920;4.628;2022-11-15T17:07:07;2.93;;;2.30;;
15130;SDS011;7666;50.920;4.628;2022-11-15T17:09:53;2.63;;;1.80;;
15130;SDS011;7666;50.920;4.628;2022-11-15T17:12:39;2.83;;;1.97;;
15130;SDS011;7666;50.920;4.628;2022-11-15T17:15:25;3.57;;;2.20;;
15130;SDS011;7666;50.920;4.628;2022-11-15T17:18:12;2.57;;;2.10;;
15130;SDS011;7666;50.920;4.628;2022-11-15T17:21:19;3.07;;;2.20;;
15130;SDS011;7666;50.920;4.628;2022-11-15T17:24:07;2.47;;;2.03;;
15130;SDS011;7666;50.920;4.628;2022-11-15T17:26:53;4.57;;;2.20;;
15130;SDS011;7666;50.920;4.628;2022-11-15T17:29:40;3.20;;;2.37;;
15130;SDS011;7666;50.920;4.628;2022-11-15T17:32:26;2.20;;;2.00;;
15130;SDS011;7666;50.920;4.628;2022-11-15T17:35:12;3.97;;;2.30;;
15130;SDS011;7666;50.920;4.628;2022-11-15T17:37:58;2.73;;;2.40;;
15130;SDS011;7666;50.920;4.628;2022-11-15T17:40:44;3.37;;;2.50;;
15130;SDS011;7666;50.920;4.628;2022-11-15T17:43:30;3.00;;;2.50;;
15130;SDS011;7666;50.920;4.628;2022-11-15T17:46:18;3.17;;;2.37;;
15130;SDS011;7666;50.920;4.628;2022-11-15T17:49:05;3.47;;;2.43;;
15130;SDS011;7666;50.920;4.628;2022-11-15T17:51:51;3.07;;;2.37;;
15130;SDS011;7666;50.920;4.628;2022-11-15T17:54:37;3.83;;;2.50;;
15130;SDS011;7666;50.920;4.628;2022-11-15T17:57:23;2.70;;;2.40;;
15130;SDS011;7666;50.920;4.628;2022-11-15T18:00:09;4.33;;;2.43;;
15130;SDS011;7666;50.920;4.628;2022-11-15T18:02:56;4.30;;;2.60;;
15130;SDS011;7666;50.920;4.628;2022-11-15T18:05:42;2.80;;;2.33;;
15130;SDS011;7666;50.920;4.628;2022-11-15T18:08:28;3.50;;;2.70;;
15130;SDS011;7666;50.920;4.628;2022-11-15T18:14:02;3.40;;;2.63;;
15130;SDS011;7666;50.920;4.628;2022-11-15T18:16:50;4.07;;;2.77;;
15130;SDS011;7666;50.920;4.628;2022-11-15T18:19:38;4.07;;;2.63;;
15130;SDS011;7666;50.920;4.628;2022-11-15T18:22:23;3.73;;;2.83;;
15130;SDS011;7666;50.920;4.628;2022-11-15T18:25:09;3.27;;;2.73;;
15130;SDS011;7666;50.920;4.628;2022-11-15T18:27:55;4.37;;;2.77;;
15130;SDS011;7666;50.920;4.628;2022-11-15T18:30:42;3.47;;;3.00;;
15130;SDS011;7666;50.920;4.628;2022-11-15T18:33:28;4.27;;;2.83;;
15130;SDS011;7666;50.920;4.628;2022-11-15T18:36:21;4.00;;;3.50;;
15130;SDS011;7666;50.920;4.628;2022-11-15T18:39:11;4.53;;;3.20;;
15130;SDS011;7666;50.920;4.628;2022-11-15T18:42:00;4.13;;;3.20;;
15130;SDS011;7666;50.920;4.628;2022-11-15T18:44:46;3.70;;;3.30;;
15130;SDS011;7666;50.920;4.628;2022-11-15T18:47:32;3.87;;;2.90;;
15130;SDS011;7666;50.920;4.628;2022-11-15T18:50:18;4.97;;;2.80;;
15130;SDS011;7666;50.920;4.628;2022-11-15T18:53:04;4.30;;;2.70;;
15130;SDS011;7666;50.920;4.628;2022-11-15T18:55:50;5.03;;;3.10;;
15130;SDS011;7666;50.920;4.628;2022-11-15T18:58:37;5.10;;;3.17;;
15130;SDS011;7666;50.920;4.628;2022-11-15T19:01:26;4.33;;;3.20;;
15130;SDS011;7666;50.920;4.628;2022-11-15T19:04:14;4.13;;;3.10;;
15130;SDS011;7666;50.920;4.628;2022-11-15T19:07:02;3.90;;;3.50;;
15130;SDS011;7666;50.920;4.628;2022-11-15T19:09:48;4.33;;;3.47;;
15130;SDS011;7666;50.920;4.628;2022-11-15T19:12:34;4.07;;;3.40;;
15130;SDS011;7666;50.920;4.628;2022-11-15T19:15:20;4.47;;;3.50;;